sensor_id;sensor_type;location;lat;lon;timestamp;temperature;humidity
73780;SHT30;62093;37.614;15.072;2023-08-12T00:01:03;24.72;60.95
73780;SHT30;62093;37.614;15.072;2023-08-12T00:03:29;24.72;61.07
73780;SHT30;62093;37.614;15.072;2023-08-12T00:05:55;24.74;60.97
73780;SHT30;62093;37.614;15.072;2023-08-12T00:08:22;24.74;61.05
73780;SHT30;62093;37.614;15.072;2023-08-12T00:10:47;24.72;61.05
73780;SHT30;62093;37.614;15.072;2023-08-12T00:13:13;24.71;60.97
73780;SHT30;62093;37.614;15.072;2023-08-12T00:15:43;24.71;60.91
73780;SHT30;62093;37.614;15.072;2023-08-12T00:18:10;24.68;60.98
73780;SHT30;62093;37.614;15.072;2023-08-12T00:20:36;24.69;60.97
73780;SHT30;62093;37.614;15.072;2023-08-12T00:23:04;24.69;60.98
73780;SHT30;62093;37.614;15.072;2023-08-12T00:25:30;24.67;61.05
73780;SHT30;62093;37.614;15.072;2023-08-12T00:27:55;24.65;60.88
73780;SHT30;62093;37.614;15.072;2023-08-12T00:30:21;24.64;60.94
73780;SHT30;62093;37.614;15.072;2023-08-12T00:32:47;24.67;60.95
73780;SHT30;62093;37.614;15.072;2023-08-12T00:35:13;24.65;60.91
73780;SHT30;62093;37.614;15.072;2023-08-12T00:37:38;24.64;60.97
73780;SHT30;62093;37.614;15.072;2023-08-12T00:40:05;24.61;60.86
73780;SHT30;62093;37.614;15.072;2023-08-12T00:42:32;24.61;60.96
73780;SHT30;62093;37.614;15.072;2023-08-12T00:44:58;24.60;60.94
73780;SHT30;62093;37.614;15.072;2023-08-12T00:47:24;24.60;60.91
73780;SHT30;62093;37.614;15.072;2023-08-12T00:49:50;24.58;60.94
73780;SHT30;62093;37.614;15.072;2023-08-12T00:52:17;24.60;60.95
73780;SHT30;62093;37.614;15.072;2023-08-12T00:54:43;24.60;60.94
73780;SHT30;62093;37.614;15.072;2023-08-12T00:57:10;24.61;60.91
73780;SHT30;62093;37.614;15.072;2023-08-12T00:59:36;24.61;60.95
73780;SHT30;62093;37.614;15.072;2023-08-12T01:02:03;24.60;60.80
73780;SHT30;62093;37.614;15.072;2023-08-12T01:04:30;24.57;60.93
73780;SHT30;62093;37.614;15.072;2023-08-12T01:06:56;24.57;60.90
73780;SHT30;62093;37.614;15.072;2023-08-12T01:09:22;24.54;60.94
73780;SHT30;62093;37.614;15.072;2023-08-12T01:14:34;24.54;61.00
73780;SHT30;62093;37.614;15.072;2023-08-12T01:17:04;24.54;60.90
73780;SHT30;62093;37.614;15.072;2023-08-12T01:19:34;24.54;60.86
73780;SHT30;62093;37.614;15.072;2023-08-12T01:22:02;24.54;60.69
73780;SHT30;62093;37.614;15.072;2023-08-12T01:24:39;24.53;60.87
73780;SHT30;62093;37.614;15.072;2023-08-12T01:27:06;24.54;60.97
73780;SHT30;62093;37.614;15.072;2023-08-12T01:29:33;24.54;60.96
73780;SHT30;62093;37.614;15.072;2023-08-12T01:32:07;24.51;60.91
73780;SHT30;62093;37.614;15.072;2023-08-12T01:34:52;24.50;60.93
73780;SHT30;62093;37.614;15.072;2023-08-12T01:37:24;24.53;60.92
73780;SHT30;62093;37.614;15.072;2023-08-12T01:39:52;24.50;60.86
73780;SHT30;62093;37.614;15.072;2023-08-12T01:42:19;24.50;60.78
73780;SHT30;62093;37.614;15.072;2023-08-12T01:44:46;24.50;60.67
73780;SHT30;62093;37.614;15.072;2023-08-12T01:47:12;24.51;60.73
73780;SHT30;62093;37.614;15.072;2023-08-12T01:49:38;24.51;60.62
73780;SHT30;62093;37.614;15.072;2023-08-12T01:52:04;24.50;60.63
73780;SHT30;62093;37.614;15.072;2023-08-12T01:54:29;24.51;60.82
73780;SHT30;62093;37.614;15.072;2023-08-12T01:57:02;24.48;60.58
73780;SHT30;62093;37.614;15.072;2023-08-12T01:59:28;24.51;60.79
73780;SHT30;62093;37.614;15.072;2023-08-12T02:01:54;24.50;60.67
73780;SHT30;62093;37.614;15.072;2023-08-12T02:04:19;24.48;60.72
73780;SHT30;62093;37.614;15.072;2023-08-12T02:06:45;24.48;60.67
73780;SHT30;62093;37.614;15.072;2023-08-12T02:09:11;24.50;60.70
73780;SHT30;62093;37.614;15.072;2023-08-12T02:11:36;24.50;60.62
73780;SHT30;62093;37.614;15.072;2023-08-12T02:14:02;24.47;60.49
73780;SHT30;62093;37.614;15.072;2023-08-12T02:16:28;24.46;60.66
73780;SHT30;62093;37.614;15.072;2023-08-12T02:18:55;24.47;60.63
73780;SHT30;62093;37.614;15.072;2023-08-12T02:21:21;24.47;60.53
73780;SHT30;62093;37.614;15.072;2023-08-12T02:23:47;24.46;60.64
73780;SHT30;62093;37.614;15.072;2023-08-12T02:26:13;24.47;60.85
73780;SHT30;62093;37.614;15.072;2023-08-12T02:28:39;24.47;60.50
73780;SHT30;62093;37.614;15.072;2023-08-12T02:31:05;24.47;60.61
73780;SHT30;62093;37.614;15.072;2023-08-12T02:33:31;24.48;60.60
73780;SHT30;62093;37.614;15.072;2023-08-12T02:35:56;24.41;60.75
73780;SHT30;62093;37.614;15.072;2023-08-12T02:38:24;24.43;60.71
73780;SHT30;62093;37.614;15.072;2023-08-12T02:40:50;24.46;60.55
73780;SHT30;62093;37.614;15.072;2023-08-12T02:43:17;24.46;60.59
73780;SHT30;62093;37.614;15.072;2023-08-12T02:45:43;24.44;60.65
73780;SHT30;62093;37.614;15.072;2023-08-12T02:48:12;24.43;60.53
73780;SHT30;62093;37.614;15.072;2023-08-12T02:50:39;24.44;60.54
73780;SHT30;62093;37.614;15.072;2023-08-12T02:53:05;24.43;60.61
73780;SHT30;62093;37.614;15.072;2023-08-12T02:55:31;24.41;60.54
73780;SHT30;62093;37.614;15.072;2023-08-12T02:57:58;24.43;60.47
73780;SHT30;62093;37.614;15.072;2023-08-12T03:00:24;24.41;60.62
73780;SHT30;62093;37.614;15.072;2023-08-12T03:02:50;24.40;60.55
73780;SHT30;62093;37.614;15.072;2023-08-12T03:05:16;24.41;60.50
73780;SHT30;62093;37.614;15.072;2023-08-12T03:07:42;24.40;60.46
73780;SHT30;62093;37.614;15.072;2023-08-12T03:10:08;24.41;60.52
73780;SHT30;62093;37.614;15.072;2023-08-12T03:12:34;24.38;60.79
73780;SHT30;62093;37.614;15.072;2023-08-12T03:15:01;24.38;60.64
73780;SHT30;62093;37.614;15.072;2023-08-12T03:17:27;24.36;60.56
73780;SHT30;62093;37.614;15.072;2023-08-12T03:19:54;24.37;60.67
73780;SHT30;62093;37.614;15.072;2023-08-12T03:22:23;24.37;60.77
73780;SHT30;62093;37.614;15.072;2023-08-12T03:24:49;24.40;60.38
73780;SHT30;62093;37.614;15.072;2023-08-12T03:27:14;24.36;60.83
73780;SHT30;62093;37.614;15.072;2023-08-12T03:29:43;24.36;60.68
73780;SHT30;62093;37.614;15.072;2023-08-12T03:32:09;24.34;60.74
73780;SHT30;62093;37.614;15.072;2023-08-12T03:34:35;24.33;60.85
73780;SHT30;62093;37.614;15.072;2023-08-12T03:37:02;24.31;60.73
73780;SHT30;62093;37.614;15.072;2023-08-12T03:39:27;24.34;60.89
73780;SHT30;62093;37.614;15.072;2023-08-12T03:41:54;24.30;60.84
73780;SHT30;62093;37.614;15.072;2023-08-12T03:44:20;24.33;60.83
73780;SHT30;62093;37.614;15.072;2023-08-12T03:46:47;24.31;60.78
73780;SHT30;62093;37.614;15.072;2023-08-12T03:49:13;24.28;60.82
73780;SHT30;62093;37.614;15.072;2023-08-12T03:51:39;24.30;60.72
73780;SHT30;62093;37.614;15.072;2023-08-12T03:54:05;24.27;60.62
73780;SHT30;62093;37.614;15.072;2023-08-12T03:56:31;24.31;60.62
73780;SHT30;62093;37.614;15.072;2023-08-12T03:58:58;24.28;60.81
73780;SHT30;62093;37.614;15.072;2023-08-12T04:01:24;24.27;61.03
73780;SHT30;62093;37.614;15.072;2023-08-12T04:03:51;24.28;60.89
73780;SHT30;62093;37.614;15.072;2023-08-12T04:06:18;24.26;60.83
73780;SHT30;62093;37.614;15.072;2023-08-12T04:08:43;24.24;60.77
73780;SHT30;62093;37.614;15.072;2023-08-12T04:11:09;24.27;60.74
73780;SHT30;62093;37.614;15.072;2023-08-12T04:13:35;24.23;60.69
73780;SHT30;62093;37.614;15.072;2023-08-12T04:16:00;24.27;60.93
73780;SHT30;62093;37.614;15.072;2023-08-12T04:18:26;24.24;60.96
73780;SHT30;62093;37.614;15.072;2023-08-12T04:20:53;24.26;60.89
73780;SHT30;62093;37.614;15.072;2023-08-12T04:23:19;24.24;60.69
73780;SHT30;62093;37.614;15.072;2023-08-12T04:25:46;24.23;60.93
73780;SHT30;62093;37.614;15.072;2023-08-12T04:28:14;24.20;60.97
73780;SHT30;62093;37.614;15.072;2023-08-12T04:30:47;24.23;60.83
73780;SHT30;62093;37.614;15.072;2023-08-12T04:33:14;24.23;60.73
73780;SHT30;62093;37.614;15.072;2023-08-12T04:35:41;24.21;60.80
73780;SHT30;62093;37.614;15.072;2023-08-12T04:38:07;24.20;61.05
73780;SHT30;62093;37.614;15.072;2023-08-12T04:40:37;24.20;60.90
73780;SHT30;62093;37.614;15.072;2023-08-12T04:43:03;24.21;60.85
73780;SHT30;62093;37.614;15.072;2023-08-12T04:45:29;24.19;60.91
73780;SHT30;62093;37.614;15.072;2023-08-12T04:47:57;24.17;60.85
73780;SHT30;62093;37.614;15.072;2023-08-12T04:50:23;24.20;60.81
73780;SHT30;62093;37.614;15.072;2023-08-12T04:52:49;24.17;60.87
73780;SHT30;62093;37.614;15.072;2023-08-12T04:55:16;24.19;60.81
73780;SHT30;62093;37.614;15.072;2023-08-12T04:57:43;24.19;60.83
73780;SHT30;62093;37.614;15.072;2023-08-12T05:00:09;24.20;60.71
73780;SHT30;62093;37.614;15.072;2023-08-12T05:02:36;24.20;60.76
73780;SHT30;62093;37.614;15.072;2023-08-12T05:05:03;24.21;60.42
73780;SHT30;62093;37.614;15.072;2023-08-12T05:07:31;24.23;60.77
73780;SHT30;62093;37.614;15.072;2023-08-12T05:09:59;24.24;60.48
73780;SHT30;62093;37.614;15.072;2023-08-12T05:12:25;24.24;60.68
73780;SHT30;62093;37.614;15.072;2023-08-12T05:14:51;24.26;60.59
73780;SHT30;62093;37.614;15.072;2023-08-12T05:17:17;24.26;60.47
73780;SHT30;62093;37.614;15.072;2023-08-12T05:19:44;24.27;60.61
73780;SHT30;62093;37.614;15.072;2023-08-12T05:22:11;24.24;60.62
73780;SHT30;62093;37.614;15.072;2023-08-12T05:24:37;24.26;60.65
73780;SHT30;62093;37.614;15.072;2023-08-12T05:27:03;24.27;60.62
73780;SHT30;62093;37.614;15.072;2023-08-12T05:29:32;24.27;60.56
73780;SHT30;62093;37.614;15.072;2023-08-12T05:31:58;24.28;60.40
73780;SHT30;62093;37.614;15.072;2023-08-12T05:34:24;24.30;60.57
73780;SHT30;62093;37.614;15.072;2023-08-12T05:36:50;24.30;59.85
73780;SHT30;62093;37.614;15.072;2023-08-12T05:39:15;24.30;60.10
73780;SHT30;62093;37.614;15.072;2023-08-12T05:41:41;24.30;59.89
73780;SHT30;62093;37.614;15.072;2023-08-12T05:44:07;24.30;60.14
73780;SHT30;62093;37.614;15.072;2023-08-12T05:46:33;24.33;60.26
73780;SHT30;62093;37.614;15.072;2023-08-12T05:48:59;24.33;60.08
73780;SHT30;62093;37.614;15.072;2023-08-12T05:51:24;24.33;60.39
73780;SHT30;62093;37.614;15.072;2023-08-12T05:53:51;24.31;60.43
73780;SHT30;62093;37.614;15.072;2023-08-12T05:56:17;24.33;60.37
73780;SHT30;62093;37.614;15.072;2023-08-12T05:58:43;24.36;60.29
73780;SHT30;62093;37.614;15.072;2023-08-12T06:01:08;24.33;60.32
73780;SHT30;62093;37.614;15.072;2023-08-12T06:03:34;24.37;60.30
73780;SHT30;62093;37.614;15.072;2023-08-12T06:06:00;24.34;60.52
73780;SHT30;62093;37.614;15.072;2023-08-12T06:08:26;24.36;60.42
73780;SHT30;62093;37.614;15.072;2023-08-12T06:10:51;24.36;60.36
73780;SHT30;62093;37.614;15.072;2023-08-12T06:13:17;24.38;60.31
73780;SHT30;62093;37.614;15.072;2023-08-12T06:15:43;24.36;60.39
73780;SHT30;62093;37.614;15.072;2023-08-12T06:18:09;24.36;60.33
73780;SHT30;62093;37.614;15.072;2023-08-12T06:20:34;24.38;60.43
73780;SHT30;62093;37.614;15.072;2023-08-12T06:23:00;24.41;60.49
73780;SHT30;62093;37.614;15.072;2023-08-12T06:25:26;24.40;60.40
73780;SHT30;62093;37.614;15.072;2023-08-12T06:27:52;24.41;60.49
73780;SHT30;62093;37.614;15.072;2023-08-12T06:30:18;24.41;60.57
73780;SHT30;62093;37.614;15.072;2023-08-12T06:32:43;24.38;60.42
73780;SHT30;62093;37.614;15.072;2023-08-12T06:35:09;24.38;60.48
73780;SHT30;62093;37.614;15.072;2023-08-12T06:37:35;24.44;60.49
73780;SHT30;62093;37.614;15.072;2023-08-12T06:40:01;24.43;60.42
73780;SHT30;62093;37.614;15.072;2023-08-12T06:42:27;24.41;60.46
73780;SHT30;62093;37.614;15.072;2023-08-12T06:44:58;24.41;60.58
73780;SHT30;62093;37.614;15.072;2023-08-12T06:47:24;24.43;60.57
73780;SHT30;62093;37.614;15.072;2023-08-12T06:49:51;24.44;60.53
73780;SHT30;62093;37.614;15.072;2023-08-12T06:52:17;24.46;60.51
73780;SHT30;62093;37.614;15.072;2023-08-12T06:54:43;24.44;60.62
73780;SHT30;62093;37.614;15.072;2023-08-12T06:57:09;24.43;60.57
73780;SHT30;62093;37.614;15.072;2023-08-12T06:59:37;24.43;60.58
73780;SHT30;62093;37.614;15.072;2023-08-12T07:02:03;24.44;60.55
73780;SHT30;62093;37.614;15.072;2023-08-12T07:04:29;24.46;60.65
73780;SHT30;62093;37.614;15.072;2023-08-12T07:06:55;24.46;60.57
73780;SHT30;62093;37.614;15.072;2023-08-12T07:09:21;24.44;60.58
73780;SHT30;62093;37.614;15.072;2023-08-12T07:11:47;24.47;60.62
73780;SHT30;62093;37.614;15.072;2023-08-12T07:14:12;24.46;60.62
73780;SHT30;62093;37.614;15.072;2023-08-12T07:16:38;24.46;60.63
73780;SHT30;62093;37.614;15.072;2023-08-12T07:19:04;24.47;60.66
73780;SHT30;62093;37.614;15.072;2023-08-12T07:21:30;24.46;60.62
73780;SHT30;62093;37.614;15.072;2023-08-12T07:23:56;24.46;60.66
73780;SHT30;62093;37.614;15.072;2023-08-12T07:26:21;24.47;60.64
73780;SHT30;62093;37.614;15.072;2023-08-12T07:28:47;24.47;60.60
73780;SHT30;62093;37.614;15.072;2023-08-12T07:31:13;24.48;60.59
73780;SHT30;62093;37.614;15.072;2023-08-12T07:33:39;24.48;60.61
73780;SHT30;62093;37.614;15.072;2023-08-12T07:36:05;24.47;60.57
73780;SHT30;62093;37.614;15.072;2023-08-12T07:38:31;24.50;60.55
73780;SHT30;62093;37.614;15.072;2023-08-12T07:40:57;24.51;60.60
73780;SHT30;62093;37.614;15.072;2023-08-12T07:43:22;24.50;60.59
73780;SHT30;62093;37.614;15.072;2023-08-12T07:45:52;24.48;60.57
73780;SHT30;62093;37.614;15.072;2023-08-12T07:48:21;24.50;60.60
73780;SHT30;62093;37.614;15.072;2023-08-12T07:50:47;24.48;60.59
73780;SHT30;62093;37.614;15.072;2023-08-12T07:53:15;24.51;60.59
73780;SHT30;62093;37.614;15.072;2023-08-12T07:55:44;24.48;60.60
73780;SHT30;62093;37.614;15.072;2023-08-12T07:58:10;24.50;60.59
73780;SHT30;62093;37.614;15.072;2023-08-12T08:00:36;24.48;60.60
73780;SHT30;62093;37.614;15.072;2023-08-12T08:03:01;24.51;60.62
73780;SHT30;62093;37.614;15.072;2023-08-12T08:05:27;24.53;60.60
73780;SHT30;62093;37.614;15.072;2023-08-12T08:07:53;24.53;60.61
73780;SHT30;62093;37.614;15.072;2023-08-12T08:10:19;24.53;60.61
73780;SHT30;62093;37.614;15.072;2023-08-12T08:12:45;24.56;60.64
73780;SHT30;62093;37.614;15.072;2023-08-12T08:15:10;24.54;60.67
73780;SHT30;62093;37.614;15.072;2023-08-12T08:17:36;24.51;60.63
73780;SHT30;62093;37.614;15.072;2023-08-12T08:20:03;24.53;60.70
73780;SHT30;62093;37.614;15.072;2023-08-12T08:22:31;24.54;60.67
73780;SHT30;62093;37.614;15.072;2023-08-12T08:24:57;24.53;60.71
73780;SHT30;62093;37.614;15.072;2023-08-12T08:27:23;24.56;60.65
73780;SHT30;62093;37.614;15.072;2023-08-12T08:29:49;24.54;60.70
73780;SHT30;62093;37.614;15.072;2023-08-12T08:32:14;24.57;60.64
73780;SHT30;62093;37.614;15.072;2023-08-12T08:34:40;24.58;60.68
73780;SHT30;62093;37.614;15.072;2023-08-12T08:37:06;24.58;60.63
73780;SHT30;62093;37.614;15.072;2023-08-12T08:39:32;24.58;60.62
73780;SHT30;62093;37.614;15.072;2023-08-12T08:41:58;24.58;60.63
73780;SHT30;62093;37.614;15.072;2023-08-12T08:44:28;24.58;60.67
73780;SHT30;62093;37.614;15.072;2023-08-12T08:46:55;24.63;60.71
73780;SHT30;62093;37.614;15.072;2023-08-12T08:49:21;24.60;60.68
73780;SHT30;62093;37.614;15.072;2023-08-12T08:51:49;24.61;60.61
73780;SHT30;62093;37.614;15.072;2023-08-12T08:54:15;24.61;60.68
73780;SHT30;62093;37.614;15.072;2023-08-12T08:56:41;24.60;60.66
73780;SHT30;62093;37.614;15.072;2023-08-12T08:59:07;24.64;60.63
73780;SHT30;62093;37.614;15.072;2023-08-12T09:01:35;24.61;60.62
73780;SHT30;62093;37.614;15.072;2023-08-12T09:04:02;24.64;60.63
73780;SHT30;62093;37.614;15.072;2023-08-12T09:06:30;24.65;60.63
73780;SHT30;62093;37.614;15.072;2023-08-12T09:08:57;24.64;60.64
73780;SHT30;62093;37.614;15.072;2023-08-12T09:11:23;24.65;60.63
73780;SHT30;62093;37.614;15.072;2023-08-12T09:13:49;24.67;60.61
73780;SHT30;62093;37.614;15.072;2023-08-12T09:16:16;24.65;60.65
73780;SHT30;62093;37.614;15.072;2023-08-12T09:18:44;24.67;60.63
73780;SHT30;62093;37.614;15.072;2023-08-12T09:21:11;24.67;60.62
73780;SHT30;62093;37.614;15.072;2023-08-12T09:23:38;24.68;60.59
73780;SHT30;62093;37.614;15.072;2023-08-12T09:26:18;24.71;60.59
73780;SHT30;62093;37.614;15.072;2023-08-12T09:28:44;24.69;60.61
73780;SHT30;62093;37.614;15.072;2023-08-12T09:33:49;24.72;60.59
73780;SHT30;62093;37.614;15.072;2023-08-12T09:36:16;24.72;60.63
73780;SHT30;62093;37.614;15.072;2023-08-12T09:38:43;24.75;60.55
73780;SHT30;62093;37.614;15.072;2023-08-12T09:41:08;24.75;60.60
73780;SHT30;62093;37.614;15.072;2023-08-12T09:43:35;24.74;60.54
73780;SHT30;62093;37.614;15.072;2023-08-12T09:46:02;24.77;60.53
73780;SHT30;62093;37.614;15.072;2023-08-12T09:48:28;24.75;60.55
73780;SHT30;62093;37.614;15.072;2023-08-12T09:50:54;24.78;60.53
73780;SHT30;62093;37.614;15.072;2023-08-12T09:53:22;24.79;60.52
73780;SHT30;62093;37.614;15.072;2023-08-12T09:55:48;24.79;60.51
73780;SHT30;62093;37.614;15.072;2023-08-12T09:58:17;24.79;60.53
73780;SHT30;62093;37.614;15.072;2023-08-12T10:00:45;24.79;60.50
73780;SHT30;62093;37.614;15.072;2023-08-12T10:03:11;24.82;60.51
73780;SHT30;62093;37.614;15.072;2023-08-12T10:05:39;24.79;60.49
73780;SHT30;62093;37.614;15.072;2023-08-12T10:08:07;24.84;60.45
73780;SHT30;62093;37.614;15.072;2023-08-12T10:10:34;24.81;60.46
73780;SHT30;62093;37.614;15.072;2023-08-12T10:13:01;24.85;60.44
73780;SHT30;62093;37.614;15.072;2023-08-12T10:15:27;24.84;60.38
73780;SHT30;62093;37.614;15.072;2023-08-12T10:17:56;24.85;60.35
73780;SHT30;62093;37.614;15.072;2023-08-12T10:20:23;24.87;60.35
73780;SHT30;62093;37.614;15.072;2023-08-12T10:22:50;24.85;60.31
73780;SHT30;62093;37.614;15.072;2023-08-12T10:25:18;24.88;60.27
73780;SHT30;62093;37.614;15.072;2023-08-12T10:27:44;24.89;60.32
73780;SHT30;62093;37.614;15.072;2023-08-12T10:30:10;24.89;60.27
73780;SHT30;62093;37.614;15.072;2023-08-12T10:32:39;24.89;60.21
73780;SHT30;62093;37.614;15.072;2023-08-12T10:35:05;24.89;60.25
73780;SHT30;62093;37.614;15.072;2023-08-12T10:37:33;24.89;60.19
73780;SHT30;62093;37.614;15.072;2023-08-12T10:40:02;24.91;60.17
73780;SHT30;62093;37.614;15.072;2023-08-12T10:42:42;24.89;60.13
73780;SHT30;62093;37.614;15.072;2023-08-12T10:45:13;24.94;60.15
73780;SHT30;62093;37.614;15.072;2023-08-12T10:50:27;24.95;60.10
73780;SHT30;62093;37.614;15.072;2023-08-12T10:52:54;24.94;60.01
73780;SHT30;62093;37.614;15.072;2023-08-12T10:55:24;24.96;60.07
73780;SHT30;62093;37.614;15.072;2023-08-12T10:57:52;24.96;60.09
73780;SHT30;62093;37.614;15.072;2023-08-12T11:00:28;24.98;59.99
73780;SHT30;62093;37.614;15.072;2023-08-12T11:02:56;24.99;60.00
73780;SHT30;62093;37.614;15.072;2023-08-12T11:05:23;24.98;59.95
73780;SHT30;62093;37.614;15.072;2023-08-12T11:07:58;24.98;59.91
73780;SHT30;62093;37.614;15.072;2023-08-12T11:10:28;25.01;59.94
73780;SHT30;62093;37.614;15.072;2023-08-12T11:12:56;25.02;59.91
73780;SHT30;62093;37.614;15.072;2023-08-12T11:15:43;25.01;59.92
73780;SHT30;62093;37.614;15.072;2023-08-12T11:18:19;25.04;59.86
73780;SHT30;62093;37.614;15.072;2023-08-12T11:20:47;25.02;59.85
73780;SHT30;62093;37.614;15.072;2023-08-12T11:23:14;25.04;59.87
73780;SHT30;62093;37.614;15.072;2023-08-12T11:25:43;25.07;59.88
73780;SHT30;62093;37.614;15.072;2023-08-12T11:28:10;25.07;59.84
73780;SHT30;62093;37.614;15.072;2023-08-12T11:30:36;25.05;59.81
73780;SHT30;62093;37.614;15.072;2023-08-12T11:33:02;25.08;59.80
73780;SHT30;62093;37.614;15.072;2023-08-12T11:35:28;25.08;59.78
73780;SHT30;62093;37.614;15.072;2023-08-12T11:37:56;25.08;59.77
73780;SHT30;62093;37.614;15.072;2023-08-12T11:40:24;25.08;59.75
73780;SHT30;62093;37.614;15.072;2023-08-12T11:42:51;25.09;59.72
73780;SHT30;62093;37.614;15.072;2023-08-12T11:45:21;25.11;59.72
73780;SHT30;62093;37.614;15.072;2023-08-12T11:47:48;25.08;59.72
73780;SHT30;62093;37.614;15.072;2023-08-12T11:50:19;25.11;59.66
73780;SHT30;62093;37.614;15.072;2023-08-12T11:52:46;25.14;59.72
73780;SHT30;62093;37.614;15.072;2023-08-12T11:55:12;25.12;59.63
73780;SHT30;62093;37.614;15.072;2023-08-12T11:57:41;25.12;59.65
73780;SHT30;62093;37.614;15.072;2023-08-12T12:00:09;25.14;59.60
73780;SHT30;62093;37.614;15.072;2023-08-12T12:02:53;25.12;59.60
73780;SHT30;62093;37.614;15.072;2023-08-12T12:05:23;25.16;59.58
73780;SHT30;62093;37.614;15.072;2023-08-12T12:07:49;25.12;59.53
73780;SHT30;62093;37.614;15.072;2023-08-12T12:10:32;25.19;59.61
73780;SHT30;62093;37.614;15.072;2023-08-12T12:12:59;25.16;59.57
73780;SHT30;62093;37.614;15.072;2023-08-12T12:15:25;25.19;59.53
73780;SHT30;62093;37.614;15.072;2023-08-12T12:17:52;25.19;59.51
73780;SHT30;62093;37.614;15.072;2023-08-12T12:20:18;25.18;59.48
73780;SHT30;62093;37.614;15.072;2023-08-12T12:22:45;25.19;59.51
73780;SHT30;62093;37.614;15.072;2023-08-12T12:25:15;25.20;59.48
73780;SHT30;62093;37.614;15.072;2023-08-12T12:27:43;25.20;59.44
73780;SHT30;62093;37.614;15.072;2023-08-12T12:30:12;25.20;59.41
73780;SHT30;62093;37.614;15.072;2023-08-12T12:32:38;25.23;59.40
73780;SHT30;62093;37.614;15.072;2023-08-12T12:35:04;25.23;59.39
73780;SHT30;62093;37.614;15.072;2023-08-12T12:37:32;25.22;59.35
73780;SHT30;62093;37.614;15.072;2023-08-12T12:39:58;25.23;59.40
73780;SHT30;62093;37.614;15.072;2023-08-12T12:42:24;25.26;59.31
73780;SHT30;62093;37.614;15.072;2023-08-12T12:44:50;25.23;59.30
73780;SHT30;62093;37.614;15.072;2023-08-12T12:47:16;25.26;59.29
73780;SHT30;62093;37.614;15.072;2023-08-12T12:49:42;25.26;59.31
73780;SHT30;62093;37.614;15.072;2023-08-12T12:52:08;25.28;59.26
73780;SHT30;62093;37.614;15.072;2023-08-12T12:54:34;25.25;59.26
73780;SHT30;62093;37.614;15.072;2023-08-12T12:57:00;25.28;59.30
73780;SHT30;62093;37.614;15.072;2023-08-12T12:59:27;25.29;59.23
73780;SHT30;62093;37.614;15.072;2023-08-12T13:01:53;25.29;59.22
73780;SHT30;62093;37.614;15.072;2023-08-12T13:04:19;25.28;59.17
73780;SHT30;62093;37.614;15.072;2023-08-12T13:06:45;25.33;59.16
73780;SHT30;62093;37.614;15.072;2023-08-12T13:09:11;25.30;59.16
73780;SHT30;62093;37.614;15.072;2023-08-12T13:11:37;25.32;59.14
73780;SHT30;62093;37.614;15.072;2023-08-12T13:14:03;25.33;59.17
73780;SHT30;62093;37.614;15.072;2023-08-12T13:16:30;25.33;59.15
73780;SHT30;62093;37.614;15.072;2023-08-12T13:18:56;25.33;59.13
73780;SHT30;62093;37.614;15.072;2023-08-12T13:21:27;25.32;59.09
73780;SHT30;62093;37.614;15.072;2023-08-12T13:23:53;25.36;59.07
73780;SHT30;62093;37.614;15.072;2023-08-12T13:26:20;25.39;59.05
73780;SHT30;62093;37.614;15.072;2023-08-12T13:28:47;25.36;59.08
73780;SHT30;62093;37.614;15.072;2023-08-12T13:31:13;25.38;59.03
73780;SHT30;62093;37.614;15.072;2023-08-12T13:33:39;25.39;59.03
73780;SHT30;62093;37.614;15.072;2023-08-12T13:36:05;25.38;59.00
73780;SHT30;62093;37.614;15.072;2023-08-12T13:38:31;25.39;59.03
73780;SHT30;62093;37.614;15.072;2023-08-12T13:40:57;25.40;58.98
73780;SHT30;62093;37.614;15.072;2023-08-12T13:43:22;25.40;58.97
73780;SHT30;62093;37.614;15.072;2023-08-12T13:45:48;25.42;58.97
73780;SHT30;62093;37.614;15.072;2023-08-12T13:48:14;25.42;58.95
73780;SHT30;62093;37.614;15.072;2023-08-12T13:50:40;25.42;58.93
73780;SHT30;62093;37.614;15.072;2023-08-12T13:53:06;25.43;58.96
73780;SHT30;62093;37.614;15.072;2023-08-12T13:55:32;25.42;58.90
73780;SHT30;62093;37.614;15.072;2023-08-12T13:57:58;25.46;58.91
73780;SHT30;62093;37.614;15.072;2023-08-12T14:00:24;25.45;58.89
73780;SHT30;62093;37.614;15.072;2023-08-12T14:02:50;25.47;58.89
73780;SHT30;62093;37.614;15.072;2023-08-12T14:05:17;25.46;58.87
73780;SHT30;62093;37.614;15.072;2023-08-12T14:07:43;25.47;58.85
73780;SHT30;62093;37.614;15.072;2023-08-12T14:10:09;25.47;58.78
73780;SHT30;62093;37.614;15.072;2023-08-12T14:12:34;25.47;58.82
73780;SHT30;62093;37.614;15.072;2023-08-12T14:15:01;25.47;58.82
73780;SHT30;62093;37.614;15.072;2023-08-12T14:17:27;25.50;58.77
73780;SHT30;62093;37.614;15.072;2023-08-12T14:19:53;25.49;58.78
73780;SHT30;62093;37.614;15.072;2023-08-12T14:22:19;25.47;58.71
73780;SHT30;62093;37.614;15.072;2023-08-12T14:24:45;25.50;58.71
73780;SHT30;62093;37.614;15.072;2023-08-12T14:27:16;25.51;58.73
73780;SHT30;62093;37.614;15.072;2023-08-12T14:29:46;25.50;58.76
73780;SHT30;62093;37.614;15.072;2023-08-12T14:32:12;25.49;58.68
73780;SHT30;62093;37.614;15.072;2023-08-12T14:34:38;25.51;58.64
73780;SHT30;62093;37.614;15.072;2023-08-12T14:37:04;25.51;58.66
73780;SHT30;62093;37.614;15.072;2023-08-12T14:39:30;25.53;58.65
73780;SHT30;62093;37.614;15.072;2023-08-12T14:41:56;25.51;58.61
73780;SHT30;62093;37.614;15.072;2023-08-12T14:44:22;25.50;58.59
73780;SHT30;62093;37.614;15.072;2023-08-12T14:46:47;25.51;58.56
73780;SHT30;62093;37.614;15.072;2023-08-12T14:49:13;25.54;58.55
73780;SHT30;62093;37.614;15.072;2023-08-12T14:51:39;25.53;58.55
73780;SHT30;62093;37.614;15.072;2023-08-12T14:54:05;25.53;58.55
73780;SHT30;62093;37.614;15.072;2023-08-12T14:56:31;25.56;58.52
73780;SHT30;62093;37.614;15.072;2023-08-12T14:58:57;25.57;58.48
73780;SHT30;62093;37.614;15.072;2023-08-12T15:01:23;25.56;58.48
73780;SHT30;62093;37.614;15.072;2023-08-12T15:03:50;25.57;58.45
73780;SHT30;62093;37.614;15.072;2023-08-12T15:06:16;25.53;58.46
73780;SHT30;62093;37.614;15.072;2023-08-12T15:08:42;25.53;58.39
73780;SHT30;62093;37.614;15.072;2023-08-12T15:11:08;25.53;58.44
73780;SHT30;62093;37.614;15.072;2023-08-12T15:13:34;25.54;58.37
73780;SHT30;62093;37.614;15.072;2023-08-12T15:16:00;25.54;58.39
73780;SHT30;62093;37.614;15.072;2023-08-12T15:18:26;25.56;58.39
73780;SHT30;62093;37.614;15.072;2023-08-12T15:20:51;25.57;58.40